PWSweather.com
Personal Weather Stations
Station Observations
KMNGREYC2
Grey Cloud Island, Grey Cloud Island, MN 55071

Grey Cloud IslandGrey Cloud Island, MN 55071

Lat: 44.799333, Lon: -92.987851

Elevation: 700

Station Type: Davis VP2

www.jagielski.com/weather/conditions.htm

High Low Average
Temperature 62.9°F17.2°C 47.3°F8.5°C 55.7°F13.2°C
Dew Point 55.2°F12.9°C 45.7°F7.6°C 49.4°F9.7°C
Winds 12.0 mph 19.3 kmh Calm Calm 3.0 mph S4.8 kmh S
Wind Gusts 26.0 mph41.8 kmh 5.0 mph8.0 kmh 13.0 mph20.9 kmh
Humidity 97% 59% 81%
Pressure 29.69 in1005.4 mb 29.43 in996.6 mb -
Precipitation 0.00 in0.0 mm - -
Hour Temp Dew Point Humidity Winds Wind Gusts Pressure Precip Precip Rate Daily Precip Total
12:00 AM 47.7°F8.7°C 45.8°F7.7°C 93% 2.0 mph SSE3.2 kmh SSE 13.0 mph20.9 kmh 29.66 in1004.4 mb 0.03 in0.8 mm 0.00 in0.0 mm 0.03 in0.8 mm
12:15 AM 47.7°F8.7°C 45.8°F7.7°C 93% 3.0 mph NW4.8 kmh NW 12.0 mph19.3 kmh 29.66 in1004.4 mb 0.02 in0.5 mm 0.00 in0.0 mm 0.03 in0.8 mm
12:30 AM 47.6°F8.7°C 46.0°F7.8°C 94% 3.0 mph SSE4.8 kmh SSE 13.0 mph20.9 kmh 29.65 in1004.1 mb 0.02 in0.5 mm 0.00 in0.0 mm 0.03 in0.8 mm
12:45 AM 47.5°F8.6°C 45.9°F7.7°C 94% 1.0 mph NE1.6 kmh NE 6.0 mph9.7 kmh 29.65 in1004.1 mb 0.02 in0.5 mm 0.00 in0.0 mm 0.03 in0.8 mm
01:00 AM 47.3°F8.5°C 45.7°F7.6°C 94% Calm Calm 11.0 mph17.7 kmh 29.63 in1003.4 mb 0.02 in0.5 mm 0.00 in0.0 mm 0.03 in0.8 mm
01:15 AM 47.3°F8.5°C 45.7°F7.6°C 94% 2.0 mph NE3.2 kmh NE 8.0 mph12.9 kmh 29.62 in1003.0 mb 0.01 in0.3 mm 0.00 in0.0 mm 0.03 in0.8 mm
01:30 AM 47.3°F8.5°C 45.7°F7.6°C 94% Calm Calm 8.0 mph12.9 kmh 29.61 in1002.7 mb 0.01 in0.3 mm 0.00 in0.0 mm 0.03 in0.8 mm
01:45 AM 47.3°F8.5°C 45.9°F7.7°C 95% 3.0 mph E4.8 kmh E 8.0 mph12.9 kmh 29.61 in1002.7 mb 0.01 in0.3 mm 0.00 in0.0 mm 0.03 in0.8 mm
02:00 AM 47.3°F8.5°C 45.9°F7.7°C 95% 1.0 mph N1.6 kmh N 11.0 mph17.7 kmh 29.60 in1002.4 mb 0.01 in0.3 mm 0.00 in0.0 mm 0.03 in0.8 mm
02:15 AM 47.4°F8.6°C 46.0°F7.8°C 95% Calm Calm 11.0 mph17.7 kmh 29.58 in1001.7 mb 0.01 in0.3 mm 0.00 in0.0 mm 0.03 in0.8 mm
02:30 AM 47.4°F8.6°C 46.0°F7.8°C 95% 3.0 mph E4.8 kmh E 11.0 mph17.7 kmh 29.57 in1001.4 mb 0.01 in0.3 mm 0.00 in0.0 mm 0.03 in0.8 mm
02:45 AM 47.6°F8.7°C 46.2°F7.9°C 95% 3.0 mph E4.8 kmh E 10.0 mph16.1 kmh 29.57 in1001.4 mb 0.01 in0.3 mm 0.00 in0.0 mm 0.03 in0.8 mm
03:00 AM 47.8°F8.8°C 46.7°F8.2°C 96% 4.0 mph SE6.4 kmh SE 10.0 mph16.1 kmh 29.57 in1001.4 mb 0.01 in0.3 mm 0.00 in0.0 mm 0.03 in0.8 mm
03:15 AM 48.1°F8.9°C 46.7°F8.2°C 95% 2.0 mph NE3.2 kmh NE 13.0 mph20.9 kmh 29.57 in1001.4 mb 0.00 in0.0 mm 0.00 in0.0 mm 0.03 in0.8 mm
03:30 AM 48.3°F9.1°C 46.9°F8.3°C 95% Calm Calm 13.0 mph20.9 kmh 29.57 in1001.4 mb 0.00 in0.0 mm 0.00 in0.0 mm 0.03 in0.8 mm
03:45 AM 48.4°F9.1°C 47.3°F8.5°C 96% Calm Calm 7.0 mph11.3 kmh 29.56 in1001.0 mb 0.00 in0.0 mm 0.00 in0.0 mm 0.03 in0.8 mm
04:00 AM 48.5°F9.2°C 47.4°F8.6°C 96% 3.0 mph E4.8 kmh E 9.0 mph14.5 kmh 29.56 in1001.0 mb 0.01 in0.3 mm 0.01 in0.3 mm 0.04 in1.0 mm
04:15 AM 48.5°F9.2°C 47.4°F8.6°C 96% 2.0 mph E3.2 kmh E 10.0 mph16.1 kmh 29.55 in1000.7 mb 0.01 in0.3 mm 0.00 in0.0 mm 0.04 in1.0 mm
04:30 AM 48.6°F9.2°C 47.5°F8.6°C 96% 1.0 mph SSE1.6 kmh SSE 10.0 mph16.1 kmh 29.54 in1000.3 mb 0.01 in0.3 mm 0.00 in0.0 mm 0.04 in1.0 mm
04:45 AM 48.6°F9.2°C 47.5°F8.6°C 96% 4.0 mph SW6.4 kmh SW 7.0 mph11.3 kmh 29.52 in999.7 mb 0.01 in0.3 mm 0.00 in0.0 mm 0.04 in1.0 mm
05:00 AM 48.7°F9.3°C 47.6°F8.7°C 96% 2.0 mph NE3.2 kmh NE 7.0 mph11.3 kmh 29.52 in999.7 mb 0.01 in0.3 mm 0.00 in0.0 mm 0.04 in1.0 mm
05:15 AM 48.8°F9.3°C 47.7°F8.7°C 96% 2.0 mph E3.2 kmh E 10.0 mph16.1 kmh 29.51 in999.3 mb 0.00 in0.0 mm 0.00 in0.0 mm 0.04 in1.0 mm
05:30 AM 49.0°F9.4°C 47.9°F8.8°C 96% Calm Calm 11.0 mph17.7 kmh 29.51 in999.3 mb 0.00 in0.0 mm 0.00 in0.0 mm 0.04 in1.0 mm
05:45 AM 49.1°F9.5°C 48.0°F8.9°C 96% 3.0 mph NE4.8 kmh NE 11.0 mph17.7 kmh 29.50 in999.0 mb 0.00 in0.0 mm 0.00 in0.0 mm 0.04 in1.0 mm
06:00 AM 49.2°F9.6°C 48.1°F8.9°C 96% 1.0 mph SE1.6 kmh SE 11.0 mph17.7 kmh 29.50 in999.0 mb 0.00 in0.0 mm 0.00 in0.0 mm 0.04 in1.0 mm
06:15 AM 49.5°F9.7°C 48.4°F9.1°C 96% 3.0 mph E4.8 kmh E 13.0 mph20.9 kmh 29.50 in999.0 mb 0.00 in0.0 mm 0.00 in0.0 mm 0.04 in1.0 mm
06:30 AM 49.6°F9.8°C 48.5°F9.2°C 96% 1.0 mph SSE1.6 kmh SSE 14.0 mph22.5 kmh 29.49 in998.6 mb 0.00 in0.0 mm 0.00 in0.0 mm 0.04 in1.0 mm
06:45 AM 49.7°F9.8°C 48.6°F9.2°C 96% 5.0 mph ENE8.0 kmh ENE 12.0 mph19.3 kmh 29.49 in998.6 mb 0.00 in0.0 mm 0.00 in0.0 mm 0.04 in1.0 mm
07:00 AM 49.8°F9.9°C 48.7°F9.3°C 96% 4.0 mph NE6.4 kmh NE 17.0 mph27.4 kmh 29.49 in998.6 mb 0.00 in0.0 mm 0.00 in0.0 mm 0.04 in1.0 mm
07:15 AM 49.8°F9.9°C 48.7°F9.3°C 96% Calm Calm 8.0 mph12.9 kmh 29.48 in998.3 mb 0.00 in0.0 mm 0.00 in0.0 mm 0.04 in1.0 mm
07:30 AM 49.8°F9.9°C 48.7°F9.3°C 96% 4.0 mph ENE6.4 kmh ENE 11.0 mph17.7 kmh 29.48 in998.3 mb 0.00 in0.0 mm 0.00 in0.0 mm 0.04 in1.0 mm
07:45 AM 50.0°F10.0°C 48.9°F9.4°C 96% 5.0 mph N8.0 kmh N 10.0 mph16.1 kmh 29.47 in998.0 mb 0.00 in0.0 mm 0.00 in0.0 mm 0.04 in1.0 mm
08:00 AM 50.2°F10.1°C 49.1°F9.5°C 96% 1.0 mph SSE1.6 kmh SSE 10.0 mph16.1 kmh 29.46 in997.6 mb 0.00 in0.0 mm 0.00 in0.0 mm 0.04 in1.0 mm
08:15 AM 50.6°F10.3°C 49.8°F9.9°C 97% Calm Calm 15.0 mph24.1 kmh 29.46 in997.6 mb 0.00 in0.0 mm 0.00 in0.0 mm 0.04 in1.0 mm
08:30 AM 50.8°F10.4°C 49.7°F9.8°C 96% 3.0 mph SE4.8 kmh SE 15.0 mph24.1 kmh 29.45 in997.3 mb 0.00 in0.0 mm 0.00 in0.0 mm 0.04 in1.0 mm
08:45 AM 51.1°F10.6°C 50.0°F10.0°C 96% Calm Calm 13.0 mph20.9 kmh 29.45 in997.3 mb 0.01 in0.3 mm 0.04 in1.0 mm 0.05 in1.3 mm
09:00 AM 51.5°F10.8°C 50.7°F10.4°C 97% 1.0 mph S1.6 kmh S 15.0 mph24.1 kmh 29.45 in997.3 mb 0.01 in0.3 mm 0.00 in0.0 mm 0.05 in1.3 mm
09:15 AM 51.7°F10.9°C 50.6°F10.3°C 96% 3.0 mph WSW4.8 kmh WSW 9.0 mph14.5 kmh 29.45 in997.3 mb 0.01 in0.3 mm 0.00 in0.0 mm 0.05 in1.3 mm
09:30 AM 51.9°F11.1°C 51.1°F10.6°C 97% 3.0 mph E4.8 kmh E 9.0 mph14.5 kmh 29.45 in997.3 mb 0.01 in0.3 mm 0.00 in0.0 mm 0.05 in1.3 mm
09:45 AM 52.3°F11.3°C 51.5°F10.8°C 97% 3.0 mph SSW4.8 kmh SSW 10.0 mph16.1 kmh 29.44 in997.0 mb 0.01 in0.3 mm 0.00 in0.0 mm 0.05 in1.3 mm
10:00 AM 52.6°F11.4°C 51.8°F11.0°C 97% 2.0 mph N3.2 kmh N 10.0 mph16.1 kmh 29.44 in997.0 mb 0.01 in0.3 mm 0.00 in0.0 mm 0.05 in1.3 mm
10:15 AM 53.2°F11.8°C 52.4°F11.3°C 97% 2.0 mph ESE3.2 kmh ESE 8.0 mph12.9 kmh 29.44 in997.0 mb 0.00 in0.0 mm 0.00 in0.0 mm 0.05 in1.3 mm
10:30 AM 53.5°F11.9°C 52.7°F11.5°C 97% Calm Calm 8.0 mph12.9 kmh 29.44 in997.0 mb 0.00 in0.0 mm 0.00 in0.0 mm 0.05 in1.3 mm
10:45 AM 53.9°F12.2°C 53.1°F11.7°C 97% Calm Calm 7.0 mph11.3 kmh 29.44 in997.0 mb 0.00 in0.0 mm 0.00 in0.0 mm 0.05 in1.3 mm
11:00 AM 54.5°F12.5°C 53.7°F12.1°C 97% Calm Calm 7.0 mph11.3 kmh 29.44 in997.0 mb 0.00 in0.0 mm 0.00 in0.0 mm 0.05 in1.3 mm
11:15 AM 55.1°F12.8°C 54.3°F12.4°C 97% 1.0 mph SSW1.6 kmh SSW 5.0 mph8.0 kmh 29.44 in997.0 mb 0.00 in0.0 mm 0.00 in0.0 mm 0.05 in1.3 mm
11:30 AM 55.6°F13.1°C 54.8°F12.7°C 97% 1.0 mph SSE1.6 kmh SSE 9.0 mph14.5 kmh 29.43 in996.6 mb 0.00 in0.0 mm 0.00 in0.0 mm 0.05 in1.3 mm
11:45 AM 56.7°F13.7°C 55.0°F12.8°C 94% 2.0 mph SSW3.2 kmh SSW 17.0 mph27.4 kmh 29.43 in996.6 mb 0.00 in0.0 mm 0.00 in0.0 mm 0.05 in1.3 mm
12:01 PM 58.1°F14.5°C 55.2°F12.9°C 90% 1.0 mph SSW1.6 kmh SSW 19.0 mph30.6 kmh 29.44 in997.0 mb 0.00 in0.0 mm 0.00 in0.0 mm 0.05 in1.3 mm
12:15 PM 58.6°F14.8°C 55.1°F12.8°C 88% 3.0 mph SW4.8 kmh SW 12.0 mph19.3 kmh 29.45 in997.3 mb 0.00 in0.0 mm 0.00 in0.0 mm 0.05 in1.3 mm
12:30 PM 59.3°F15.2°C 54.8°F12.7°C 85% 5.0 mph SSW8.0 kmh SSW 12.0 mph19.3 kmh 29.46 in997.6 mb 0.00 in0.0 mm 0.00 in0.0 mm 0.05 in1.3 mm
12:45 PM 59.7°F15.4°C 53.5°F11.9°C 80% 12.0 mph S19.3 kmh S 15.0 mph24.1 kmh 29.47 in998.0 mb 0.00 in0.0 mm 0.00 in0.0 mm 0.05 in1.3 mm
01:00 PM 59.8°F15.4°C 52.9°F11.6°C 78% Calm Calm 16.0 mph25.7 kmh 29.48 in998.3 mb 0.00 in0.0 mm 0.00 in0.0 mm 0.05 in1.3 mm
01:15 PM 60.2°F15.7°C 52.3°F11.3°C 75% 3.0 mph SSW4.8 kmh SSW 22.0 mph35.4 kmh 29.48 in998.3 mb 0.00 in0.0 mm 0.00 in0.0 mm 0.05 in1.3 mm
01:30 PM 60.5°F15.8°C 52.2°F11.2°C 74% 6.0 mph SW9.7 kmh SW 22.0 mph35.4 kmh 29.49 in998.6 mb 0.00 in0.0 mm 0.00 in0.0 mm 0.05 in1.3 mm
01:45 PM 60.9°F16.1°C 52.6°F11.4°C 74% 3.0 mph SW4.8 kmh SW 22.0 mph35.4 kmh 29.49 in998.6 mb 0.00 in0.0 mm 0.00 in0.0 mm 0.05 in1.3 mm
02:00 PM 61.3°F16.3°C 51.8°F11.0°C 71% 12.0 mph SW19.3 kmh SW 22.0 mph35.4 kmh 29.49 in998.6 mb 0.00 in0.0 mm 0.00 in0.0 mm 0.05 in1.3 mm
02:15 PM 61.4°F16.3°C 51.9°F11.1°C 71% 5.0 mph SE8.0 kmh SE 14.0 mph22.5 kmh 29.50 in999.0 mb 0.00 in0.0 mm 0.00 in0.0 mm 0.05 in1.3 mm
02:30 PM 61.6°F16.4°C 51.3°F10.7°C 69% 3.0 mph SW4.8 kmh SW 26.0 mph41.8 kmh 29.50 in999.0 mb 0.00 in0.0 mm 0.00 in0.0 mm 0.05 in1.3 mm
02:45 PM 62.8°F17.1°C 51.7°F10.9°C 67% 4.0 mph SSW6.4 kmh SSW 16.0 mph25.7 kmh 29.50 in999.0 mb 0.01 in0.3 mm 0.04 in1.0 mm 0.06 in1.5 mm
03:00 PM 62.4°F16.9°C 50.9°F10.5°C 66% 6.0 mph WSW9.7 kmh WSW 19.0 mph30.6 kmh 29.50 in999.0 mb 0.01 in0.3 mm 0.00 in0.0 mm 0.06 in1.5 mm
03:15 PM 62.5°F16.9°C 51.8°F11.0°C 68% 6.0 mph SSW9.7 kmh SSW 10.0 mph16.1 kmh 29.51 in999.3 mb 0.01 in0.3 mm 0.00 in0.0 mm 0.06 in1.5 mm
03:30 PM 62.8°F17.1°C 49.6°F9.8°C 62% 4.0 mph SW6.4 kmh SW 17.0 mph27.4 kmh 29.51 in999.3 mb 0.01 in0.3 mm 0.00 in0.0 mm 0.06 in1.5 mm
03:45 PM 62.9°F17.2°C 50.6°F10.3°C 64% 3.0 mph SSW4.8 kmh SSW 15.0 mph24.1 kmh 29.52 in999.7 mb 0.00 in0.0 mm 0.00 in0.0 mm 0.06 in1.5 mm
04:00 PM 62.3°F16.8°C 50.0°F10.0°C 64% 3.0 mph S4.8 kmh S 20.0 mph32.2 kmh 29.53 in1000.0 mb 0.00 in0.0 mm 0.00 in0.0 mm 0.06 in1.5 mm
04:15 PM 62.0°F16.7°C 49.7°F9.8°C 64% 5.0 mph SW8.0 kmh SW 12.0 mph19.3 kmh 29.53 in1000.0 mb 0.00 in0.0 mm 0.00 in0.0 mm 0.06 in1.5 mm
04:30 PM 61.8°F16.6°C 49.9°F9.9°C 65% 7.0 mph S11.3 kmh S 12.0 mph19.3 kmh 29.54 in1000.3 mb 0.00 in0.0 mm 0.00 in0.0 mm 0.06 in1.5 mm
04:45 PM 61.8°F16.6°C 49.5°F9.7°C 64% 4.0 mph SSW6.4 kmh SSW 13.0 mph20.9 kmh 29.55 in1000.7 mb 0.00 in0.0 mm 0.00 in0.0 mm 0.06 in1.5 mm
05:00 PM 61.9°F16.6°C 49.6°F9.8°C 64% 2.0 mph SW3.2 kmh SW 17.0 mph27.4 kmh 29.55 in1000.7 mb 0.00 in0.0 mm 0.00 in0.0 mm 0.06 in1.5 mm
05:15 PM 62.0°F16.7°C 49.7°F9.8°C 64% 4.0 mph W6.4 kmh W 12.0 mph19.3 kmh 29.56 in1001.0 mb 0.00 in0.0 mm 0.00 in0.0 mm 0.06 in1.5 mm
05:30 PM 61.9°F16.6°C 49.2°F9.6°C 63% 3.0 mph SSW4.8 kmh SSW 13.0 mph20.9 kmh 29.56 in1001.0 mb 0.00 in0.0 mm 0.00 in0.0 mm 0.06 in1.5 mm
05:45 PM 61.7°F16.5°C 49.4°F9.7°C 64% Calm Calm 16.0 mph25.7 kmh 29.57 in1001.4 mb 0.00 in0.0 mm 0.00 in0.0 mm 0.06 in1.5 mm
06:00 PM 61.6°F16.4°C 48.9°F9.4°C 63% 4.0 mph WSW6.4 kmh WSW 20.0 mph32.2 kmh 29.58 in1001.7 mb 0.00 in0.0 mm 0.00 in0.0 mm 0.06 in1.5 mm
06:15 PM 61.5°F16.4°C 49.6°F9.8°C 65% 4.0 mph S6.4 kmh S 8.0 mph12.9 kmh 29.58 in1001.7 mb 0.00 in0.0 mm 0.00 in0.0 mm 0.06 in1.5 mm
06:30 PM 61.4°F16.3°C 50.0°F10.0°C 66% 6.0 mph S9.7 kmh S 15.0 mph24.1 kmh 29.58 in1001.7 mb 0.00 in0.0 mm 0.00 in0.0 mm 0.06 in1.5 mm
06:45 PM 61.5°F16.4°C 49.6°F9.8°C 65% 5.0 mph SW8.0 kmh SW 14.0 mph22.5 kmh 29.59 in1002.0 mb 0.00 in0.0 mm 0.00 in0.0 mm 0.06 in1.5 mm
07:00 PM 61.4°F16.3°C 49.5°F9.7°C 65% 1.0 mph SW1.6 kmh SW 14.0 mph22.5 kmh 29.59 in1002.0 mb 0.00 in0.0 mm 0.00 in0.0 mm 0.06 in1.5 mm
07:15 PM 61.4°F16.3°C 50.0°F10.0°C 66% 2.0 mph SE3.2 kmh SE 8.0 mph12.9 kmh 29.59 in1002.0 mb 0.00 in0.0 mm 0.00 in0.0 mm 0.06 in1.5 mm
07:30 PM 61.3°F16.3°C 49.9°F9.9°C 66% Calm Calm 8.0 mph12.9 kmh 29.60 in1002.4 mb 0.00 in0.0 mm 0.00 in0.0 mm 0.06 in1.5 mm
07:45 PM 61.1°F16.2°C 48.0°F8.9°C 62% 6.0 mph S9.7 kmh S 9.0 mph14.5 kmh 29.61 in1002.7 mb 0.00 in0.0 mm 0.00 in0.0 mm 0.06 in1.5 mm
08:00 PM 61.2°F16.2°C 48.1°F8.9°C 62% 7.0 mph WNW11.3 kmh WNW 14.0 mph22.5 kmh 29.61 in1002.7 mb 0.00 in0.0 mm 0.00 in0.0 mm 0.06 in1.5 mm
08:15 PM 61.1°F16.2°C 47.6°F8.7°C 61% 3.0 mph SSW4.8 kmh SSW 11.0 mph17.7 kmh 29.62 in1003.0 mb 0.00 in0.0 mm 0.00 in0.0 mm 0.06 in1.5 mm
08:30 PM 60.7°F15.9°C 46.3°F7.9°C 59% 6.0 mph SSW9.7 kmh SSW 14.0 mph22.5 kmh 29.62 in1003.0 mb 0.00 in0.0 mm 0.00 in0.0 mm 0.06 in1.5 mm
08:45 PM 60.3°F15.7°C 46.4°F8.0°C 60% 9.0 mph S14.5 kmh S 11.0 mph17.7 kmh 29.63 in1003.4 mb 0.00 in0.0 mm 0.00 in0.0 mm 0.06 in1.5 mm
09:00 PM 59.9°F15.5°C 46.4°F8.0°C 61% 2.0 mph S3.2 kmh S 13.0 mph20.9 kmh 29.64 in1003.7 mb 0.00 in0.0 mm 0.00 in0.0 mm 0.06 in1.5 mm
09:15 PM 59.5°F15.3°C 46.5°F8.1°C 62% 5.0 mph S8.0 kmh S 12.0 mph19.3 kmh 29.64 in1003.7 mb 0.01 in0.3 mm 0.04 in1.0 mm 0.07 in1.8 mm
09:30 PM 59.1°F15.1°C 46.5°F8.1°C 63% 2.0 mph SW3.2 kmh SW 12.0 mph19.3 kmh 29.64 in1003.7 mb 0.01 in0.3 mm 0.00 in0.0 mm 0.07 in1.8 mm
09:45 PM 58.9°F14.9°C 47.2°F8.4°C 65% 4.0 mph WSW6.4 kmh WSW 19.0 mph30.6 kmh 29.65 in1004.1 mb 0.01 in0.3 mm 0.00 in0.0 mm 0.07 in1.8 mm
10:00 PM 58.7°F14.8°C 47.0°F8.3°C 65% 3.0 mph S4.8 kmh S 19.0 mph30.6 kmh 29.66 in1004.4 mb 0.01 in0.3 mm 0.00 in0.0 mm 0.07 in1.8 mm
10:15 PM 58.6°F14.8°C 47.3°F8.5°C 66% 3.0 mph WSW4.8 kmh WSW 12.0 mph19.3 kmh 29.66 in1004.4 mb 0.01 in0.3 mm 0.00 in0.0 mm 0.07 in1.8 mm
10:30 PM 58.5°F14.7°C 47.2°F8.4°C 66% 3.0 mph SW4.8 kmh SW 15.0 mph24.1 kmh 29.67 in1004.7 mb 0.01 in0.3 mm 0.00 in0.0 mm 0.07 in1.8 mm
10:45 PM 58.6°F14.8°C 47.7°F8.7°C 67% 9.0 mph S14.5 kmh S 13.0 mph20.9 kmh 29.67 in1004.7 mb 0.00 in0.0 mm 0.00 in0.0 mm 0.07 in1.8 mm
11:00 PM 58.6°F14.8°C 47.7°F8.7°C 67% 3.0 mph SW4.8 kmh SW 13.0 mph20.9 kmh 29.67 in1004.7 mb 0.00 in0.0 mm 0.00 in0.0 mm 0.07 in1.8 mm
11:15 PM 58.5°F14.7°C 48.4°F9.1°C 69% 3.0 mph SSW4.8 kmh SSW 16.0 mph25.7 kmh 29.67 in1004.7 mb 0.00 in0.0 mm 0.00 in0.0 mm 0.07 in1.8 mm
11:30 PM 58.5°F14.7°C 48.4°F9.1°C 69% 6.0 mph SW9.7 kmh SW 16.0 mph25.7 kmh 29.67 in1004.7 mb 0.00 in0.0 mm 0.00 in0.0 mm 0.07 in1.8 mm
11:45 PM 58.5°F14.7°C 48.4°F9.1°C 69% 4.0 mph SW6.4 kmh SW 10.0 mph16.1 kmh 29.68 in1005.1 mb 0.00 in0.0 mm 0.00 in0.0 mm 0.07 in1.8 mm